To NAV CANADA Home Page Login to a new session Search on AWWS site Feedback and Comments Disclaimer Vers la page française équivalente Tips FAQ What's new on the site To the Forecasts and Observations / NOTAM section To "File a Flight Plan" website Publications and other links Update of the User's profile FIC Telephone Numbers My Weather Data Folder Route Weather Data Regional Weather Data Local Weather Data To the Forecasts and Observations / NOTAM section
Request Generated 03/31/2015 at 12:33:42 UTC . Weather information available at that time is displayed.

METAR/TAF

KINGSTON/ON    

METAR CYGK 311200Z 02006KT 15SM FEW030 FEW120 SCT240 M02/M08 A2986
RMK SC1AC1CI4 SC TR AC TR SLP115=
METAR CYGK 311100Z 02004KT 15SM FEW038 FEW120 FEW240 M03/M05 A2986
RMK SC1AC1CI1 AC TR SLP114=
METAR CYGK 311000Z 32003KT 15SM FEW038 M02/M04 A2984 RMK SC2 SLP110=

TAF CYGK 311138Z 3112/3124 02005KT P6SM FEW040
BECMG 3114/3116 06008KT
BECMG 3118/3120 16006KT
RMK NXT FCST BY 311400Z=
Your time UTC time
Weather data provided by Environment Canada and NAV CANADA